createdAt,value
2023-05-18T00:00:38.897Z,5.10
2023-05-18T00:01:40.027Z,5.09
2023-05-18T00:02:40.073Z,4.88
2023-05-18T00:03:40.113Z,4.75
2023-05-18T00:04:40.078Z,4.65
2023-05-18T00:05:39.980Z,4.65
2023-05-18T00:06:39.970Z,4.51
2023-05-18T00:07:39.960Z,4.58
2023-05-18T00:08:39.974Z,4.59
2023-05-18T00:09:39.947Z,4.57
2023-05-18T00:10:39.947Z,4.54
2023-05-18T00:11:39.919Z,4.54
2023-05-18T00:12:39.936Z,4.54
2023-05-18T00:13:39.916Z,4.64
2023-05-18T00:14:39.925Z,4.54
2023-05-18T00:15:39.904Z,4.44
2023-05-18T00:16:39.968Z,4.51
2023-05-18T00:17:39.899Z,4.44
2023-05-18T00:18:39.949Z,4.54
2023-05-18T00:19:39.842Z,4.40
2023-05-18T00:20:39.829Z,4.43
2023-05-18T00:21:39.867Z,4.39
2023-05-18T00:22:39.860Z,4.47
2023-05-18T00:23:39.807Z,4.42
2023-05-18T00:24:39.817Z,4.43
2023-05-18T00:25:39.801Z,4.46
2023-05-18T00:26:39.803Z,4.46
2023-05-18T00:27:39.768Z,4.36
2023-05-18T00:28:39.769Z,4.33
2023-05-18T00:29:39.754Z,4.40
2023-05-18T00:30:39.747Z,4.39
2023-05-18T00:31:39.753Z,4.46
2023-05-18T00:32:39.771Z,4.50
2023-05-18T00:33:39.719Z,4.36
2023-05-18T00:34:39.708Z,4.39
2023-05-18T00:35:39.703Z,4.21
2023-05-18T00:36:39.672Z,4.29
2023-05-18T00:37:40.672Z,4.28
2023-05-18T00:38:39.654Z,4.29
2023-05-18T00:39:39.722Z,4.18
2023-05-18T00:40:39.640Z,4.18
2023-05-18T00:41:39.651Z,4.16
2023-05-18T00:42:39.617Z,3.96
2023-05-18T00:43:39.630Z,4.03
2023-05-18T00:44:39.629Z,4.08
2023-05-18T00:45:39.615Z,4.08
2023-05-18T00:46:39.589Z,4.14
2023-05-18T00:47:39.603Z,4.22
2023-05-18T00:48:39.556Z,4.16
2023-05-18T00:49:39.541Z,4.18
2023-05-18T00:50:39.525Z,4.16
2023-05-18T00:51:39.531Z,4.07
2023-05-18T00:52:39.521Z,4.14
2023-05-18T00:53:39.748Z,4.01
2023-05-18T00:54:39.494Z,3.90
2023-05-18T00:55:39.496Z,3.94
2023-05-18T00:56:39.565Z,4.01
2023-05-18T00:57:39.502Z,3.90
2023-05-18T00:58:39.480Z,4.01
2023-05-18T00:59:39.477Z,3.96
2023-05-18T01:00:39.457Z,3.92
2023-05-18T01:01:39.503Z,3.94
2023-05-18T01:02:40.513Z,3.90
2023-05-18T01:03:39.534Z,3.86
2023-05-18T01:04:39.394Z,3.86
2023-05-18T01:05:39.417Z,3.83
2023-05-18T01:06:39.383Z,3.88
2023-05-18T01:07:39.375Z,3.79
2023-05-18T01:08:39.399Z,3.85
2023-05-18T01:09:39.336Z,3.80
2023-05-18T01:10:39.352Z,3.86
2023-05-18T01:11:39.391Z,3.90
2023-05-18T01:12:39.345Z,3.85
2023-05-18T01:13:39.318Z,3.76
2023-05-18T01:14:39.309Z,3.83
2023-05-18T01:15:39.331Z,3.79
2023-05-18T01:16:39.278Z,3.78
2023-05-18T01:17:39.304Z,3.68
2023-05-18T01:18:39.287Z,3.70
2023-05-18T01:19:39.265Z,3.68
2023-05-18T01:20:39.278Z,3.80
2023-05-18T01:21:39.256Z,3.71
2023-05-18T01:22:39.228Z,3.72
2023-05-18T01:23:39.217Z,3.76
2023-05-18T01:24:39.201Z,3.64
2023-05-18T01:25:39.189Z,3.72
2023-05-18T01:26:39.178Z,3.65
2023-05-18T01:27:39.148Z,3.65
2023-05-18T01:28:39.145Z,3.62
2023-05-18T01:29:39.178Z,3.58
2023-05-18T01:30:39.165Z,3.60
2023-05-18T01:31:39.130Z,3.62
2023-05-18T01:32:39.151Z,3.62
2023-05-18T01:33:39.111Z,3.57
2023-05-18T01:34:39.101Z,3.53
2023-05-18T01:35:39.088Z,3.52
2023-05-18T01:36:39.092Z,3.47
2023-05-18T01:37:39.074Z,3.57
2023-05-18T01:38:39.393Z,3.64
2023-05-18T01:39:39.047Z,3.52
2023-05-18T01:40:39.040Z,3.62
2023-05-18T01:41:39.033Z,3.64
2023-05-18T01:42:39.018Z,3.52
2023-05-18T01:43:39.045Z,3.61
2023-05-18T01:44:39.016Z,3.62
2023-05-18T01:45:38.990Z,3.58
2023-05-18T01:46:39.017Z,3.57
2023-05-18T01:47:39.029Z,3.60
2023-05-18T01:48:38.975Z,3.57
2023-05-18T01:49:38.966Z,3.58
2023-05-18T01:50:38.973Z,3.50
2023-05-18T01:51:38.981Z,3.50
2023-05-18T01:52:38.954Z,3.46
2023-05-18T01:53:38.931Z,3.47
2023-05-18T01:54:38.930Z,3.44
2023-05-18T01:55:38.917Z,3.34
2023-05-18T01:56:38.909Z,3.33
2023-05-18T01:57:38.921Z,3.42
2023-05-18T01:58:38.886Z,3.33
2023-05-18T01:59:38.894Z,3.44
2023-05-18T02:00:38.855Z,3.43
2023-05-18T02:01:38.880Z,3.33
2023-05-18T02:02:38.993Z,3.43
2023-05-18T02:03:38.974Z,3.44
2023-05-18T02:04:38.830Z,3.21
2023-05-18T02:05:38.819Z,3.25
2023-05-18T02:06:38.827Z,3.30
2023-05-18T02:07:38.817Z,3.33
2023-05-18T02:08:38.791Z,3.20
2023-05-18T02:09:38.771Z,3.25
2023-05-18T02:10:38.760Z,3.25
2023-05-18T02:11:38.756Z,3.30
2023-05-18T02:12:38.733Z,3.23
2023-05-18T02:13:38.717Z,3.30
2023-05-18T02:14:38.755Z,3.28
2023-05-18T02:15:38.731Z,3.27
2023-05-18T02:16:38.770Z,3.23
2023-05-18T02:17:38.720Z,3.13
2023-05-18T02:18:39.719Z,3.20
2023-05-18T02:19:38.702Z,3.27
2023-05-18T02:20:38.638Z,3.15
2023-05-18T02:21:38.645Z,3.20
2023-05-18T02:22:38.635Z,3.23
2023-05-18T02:23:38.710Z,3.10
2023-05-18T02:24:38.607Z,3.12
2023-05-18T02:25:38.610Z,3.07
2023-05-18T02:26:38.586Z,3.05
2023-05-18T02:27:38.585Z,3.07
2023-05-18T02:28:38.580Z,3.06
2023-05-18T02:29:38.557Z,3.09
2023-05-18T02:30:38.570Z,3.06
2023-05-18T02:31:38.588Z,3.07
2023-05-18T02:32:38.678Z,3.05
2023-05-18T02:33:38.538Z,3.05
2023-05-18T02:34:38.501Z,3.06
2023-05-18T02:35:38.496Z,3.07
2023-05-18T02:36:38.502Z,3.09
2023-05-18T02:37:38.468Z,3.02
2023-05-18T02:38:38.504Z,2.88
2023-05-18T02:39:38.501Z,2.81
2023-05-18T02:40:38.480Z,2.74
2023-05-18T02:41:38.454Z,2.71
2023-05-18T02:42:38.423Z,2.71
2023-05-18T02:43:38.406Z,2.61
2023-05-18T02:44:38.430Z,2.66
2023-05-18T02:45:38.412Z,2.77
2023-05-18T02:46:38.411Z,2.82
2023-05-18T02:47:38.405Z,2.82
2023-05-18T02:48:38.368Z,2.88
2023-05-18T02:49:38.403Z,2.74
2023-05-18T02:50:38.371Z,2.74
2023-05-18T02:51:38.351Z,2.77
2023-05-18T02:52:38.362Z,2.81
2023-05-18T02:53:38.371Z,2.84
2023-05-18T02:54:38.366Z,2.77
2023-05-18T02:55:38.373Z,2.79
2023-05-18T02:56:38.312Z,2.77
2023-05-18T02:57:38.289Z,2.79
2023-05-18T02:58:38.294Z,2.79
2023-05-18T02:59:38.302Z,2.79
2023-05-18T03:00:38.290Z,2.74
2023-05-18T03:01:38.278Z,2.85
2023-05-18T03:02:38.396Z,2.84
2023-05-18T03:03:38.292Z,2.71
2023-05-18T03:04:38.243Z,2.71
2023-05-18T03:05:38.208Z,2.81
2023-05-18T03:06:38.223Z,2.77
2023-05-18T03:07:38.210Z,2.79
2023-05-18T03:08:39.206Z,2.79
2023-05-18T03:09:38.186Z,2.76
2023-05-18T03:10:38.184Z,2.77
2023-05-18T03:11:38.164Z,2.69
2023-05-18T03:12:38.184Z,2.71
2023-05-18T03:13:38.134Z,2.77
2023-05-18T03:14:39.158Z,2.66
2023-05-18T03:15:38.163Z,2.61
2023-05-18T03:16:38.257Z,2.46
2023-05-18T03:17:38.210Z,2.46
2023-05-18T03:18:38.148Z,2.49
2023-05-18T03:19:38.112Z,2.38
2023-05-18T03:20:38.108Z,2.23
2023-05-18T03:21:38.080Z,2.26
2023-05-18T03:22:38.076Z,2.19
2023-05-18T03:23:38.073Z,2.10
2023-05-18T03:24:38.057Z,2.22
2023-05-18T03:25:38.048Z,2.22
2023-05-18T03:26:38.037Z,2.12
2023-05-18T03:27:38.049Z,2.02
2023-05-18T03:28:37.995Z,2.01
2023-05-18T03:29:38.012Z,2.19
2023-05-18T03:30:37.989Z,2.15
2023-05-18T03:31:38.057Z,2.17
2023-05-18T03:32:38.074Z,2.23
2023-05-18T03:33:37.941Z,2.27
2023-05-18T03:34:37.942Z,2.22
2023-05-18T03:35:38.003Z,2.22
2023-05-18T03:36:37.925Z,2.37
2023-05-18T03:37:37.966Z,2.23
2023-05-18T03:38:37.898Z,2.23
2023-05-18T03:39:37.912Z,2.30
2023-05-18T03:40:37.895Z,2.33
2023-05-18T03:41:37.897Z,2.28
2023-05-18T03:42:37.884Z,2.26
2023-05-18T03:43:37.881Z,2.40
2023-05-18T03:44:37.846Z,2.26
2023-05-18T03:45:37.883Z,2.40
2023-05-18T03:46:37.847Z,2.34
2023-05-18T03:47:37.848Z,2.34
2023-05-18T03:48:37.829Z,2.37
2023-05-18T03:49:37.813Z,2.35
2023-05-18T03:50:37.848Z,2.41
2023-05-18T03:51:37.779Z,2.45
2023-05-18T03:52:37.779Z,2.33
2023-05-18T03:53:37.775Z,2.31
2023-05-18T03:54:37.768Z,2.44
2023-05-18T03:55:37.765Z,2.44
2023-05-18T03:56:37.720Z,2.41
2023-05-18T03:57:37.740Z,2.55
2023-05-18T03:58:38.698Z,2.52
2023-05-18T03:59:37.727Z,2.44
2023-05-18T04:00:37.703Z,2.51
2023-05-18T04:01:37.727Z,2.51
2023-05-18T04:02:37.796Z,2.46
2023-05-18T04:03:37.757Z,2.52
2023-05-18T04:04:37.643Z,2.58
2023-05-18T04:05:37.622Z,2.61
2023-05-18T04:06:37.668Z,2.66
2023-05-18T04:07:37.628Z,2.61
2023-05-18T04:08:37.682Z,2.58
2023-05-18T04:09:37.623Z,2.56
2023-05-18T04:10:37.576Z,2.51
2023-05-18T04:11:37.574Z,2.51
2023-05-18T04:12:37.575Z,2.52
2023-05-18T04:13:37.573Z,2.56
2023-05-18T04:14:37.565Z,2.53
2023-05-18T04:15:37.557Z,2.66
2023-05-18T04:16:37.558Z,2.73
2023-05-18T04:17:37.549Z,2.73
2023-05-18T04:18:37.558Z,2.70
2023-05-18T04:19:37.542Z,2.70
2023-05-18T04:20:37.486Z,2.76
2023-05-18T04:21:37.512Z,2.67
2023-05-18T04:22:37.467Z,2.56
2023-05-18T04:23:37.477Z,2.63
2023-05-18T04:24:37.446Z,2.58
2023-05-18T04:25:37.464Z,2.59
2023-05-18T04:26:37.419Z,2.58
2023-05-18T04:27:37.433Z,2.49
2023-05-18T04:28:37.572Z,2.61
2023-05-18T04:29:37.416Z,2.64
2023-05-18T04:30:37.410Z,2.58
2023-05-18T04:31:37.467Z,2.63
2023-05-18T04:32:37.399Z,2.73
2023-05-18T04:33:37.380Z,2.67
2023-05-18T04:34:37.363Z,2.74
2023-05-18T04:35:37.362Z,2.71
2023-05-18T04:36:37.353Z,2.71
2023-05-18T04:37:37.343Z,2.61
2023-05-18T04:38:37.334Z,2.69
2023-05-18T04:39:37.319Z,2.71
2023-05-18T04:40:37.321Z,2.73
2023-05-18T04:41:37.312Z,2.76
2023-05-18T04:42:37.333Z,2.79
2023-05-18T04:43:37.267Z,2.82
2023-05-18T04:44:37.276Z,2.84
2023-05-18T04:45:37.327Z,2.94
2023-05-18T04:46:37.259Z,3.02
2023-05-18T04:47:37.277Z,3.03
2023-05-18T04:48:37.206Z,3.07
2023-05-18T04:49:37.212Z,3.24
2023-05-18T04:50:37.245Z,3.28
2023-05-18T04:51:37.190Z,3.20
2023-05-18T04:52:37.191Z,3.30
2023-05-18T04:53:37.169Z,3.39
2023-05-18T04:54:37.158Z,3.47
2023-05-18T04:55:37.153Z,3.44
2023-05-18T04:56:37.174Z,3.47
2023-05-18T04:57:37.140Z,3.61
2023-05-18T04:58:37.134Z,3.44
2023-05-18T04:59:37.106Z,3.62
2023-05-18T05:00:37.113Z,3.61
2023-05-18T05:01:37.111Z,3.71
2023-05-18T05:02:37.126Z,3.68
2023-05-18T05:03:37.148Z,3.61
2023-05-18T05:04:37.076Z,3.47
2023-05-18T05:05:37.030Z,3.49
2023-05-18T05:06:37.051Z,3.62
2023-05-18T05:07:37.015Z,3.60
2023-05-18T05:08:37.007Z,3.62
2023-05-18T05:09:36.999Z,3.70
2023-05-18T05:10:36.999Z,3.70
2023-05-18T05:11:36.996Z,3.57
2023-05-18T05:12:36.990Z,3.70
2023-05-18T05:13:36.970Z,3.78
2023-05-18T05:14:36.951Z,3.83
2023-05-18T05:15:36.961Z,3.79
2023-05-18T05:16:36.951Z,3.85
2023-05-18T05:17:37.006Z,3.86
2023-05-18T05:18:36.941Z,3.71
2023-05-18T05:19:36.914Z,3.92
2023-05-18T05:20:36.914Z,3.92
2023-05-18T05:21:36.897Z,3.80
2023-05-18T05:22:36.969Z,3.78
2023-05-18T05:23:36.850Z,3.97
2023-05-18T05:24:36.839Z,3.96
2023-05-18T05:25:36.847Z,4.10
2023-05-18T05:26:36.827Z,4.01
2023-05-18T05:27:36.808Z,4.00
2023-05-18T05:28:36.785Z,4.07
2023-05-18T05:29:36.783Z,4.01
2023-05-18T05:30:36.799Z,3.97
2023-05-18T05:31:36.814Z,3.94
2023-05-18T05:32:36.962Z,4.06
2023-05-18T05:33:36.751Z,4.07
2023-05-18T05:34:36.788Z,4.16
2023-05-18T05:35:37.044Z,4.19
2023-05-18T05:36:36.749Z,4.40
2023-05-18T05:37:36.732Z,4.55
2023-05-18T05:38:36.717Z,4.65
2023-05-18T05:39:36.714Z,4.79
2023-05-18T05:40:36.672Z,4.89
2023-05-18T05:41:36.691Z,4.96
2023-05-18T05:42:36.704Z,5.05
2023-05-18T05:43:36.669Z,5.02
2023-05-18T05:44:36.673Z,5.14
2023-05-18T05:45:36.656Z,5.32
2023-05-18T05:46:36.742Z,5.22
2023-05-18T05:47:36.667Z,5.30
2023-05-18T05:48:36.610Z,5.49
2023-05-18T05:49:36.636Z,5.55
2023-05-18T05:50:36.586Z,5.60
2023-05-18T05:51:36.560Z,5.74
2023-05-18T05:52:36.592Z,5.91
2023-05-18T05:53:36.572Z,6.01
2023-05-18T05:54:36.545Z,6.18
2023-05-18T05:55:36.528Z,6.30
2023-05-18T05:56:36.517Z,6.58
2023-05-18T05:57:36.514Z,6.63
2023-05-18T05:58:36.506Z,6.65
2023-05-18T05:59:36.503Z,6.77
2023-05-18T06:00:36.479Z,6.94
2023-05-18T06:01:36.473Z,6.89
2023-05-18T06:02:36.729Z,6.94
2023-05-18T06:03:36.522Z,7.07
2023-05-18T06:04:36.580Z,7.26
2023-05-18T06:05:36.426Z,7.45
2023-05-18T06:06:36.421Z,7.62
2023-05-18T06:07:36.412Z,7.85
2023-05-18T06:08:36.400Z,7.96
2023-05-18T06:09:36.385Z,8.14
2023-05-18T06:10:36.371Z,8.22
2023-05-18T06:11:36.363Z,8.25
2023-05-18T06:12:36.365Z,8.45
2023-05-18T06:13:36.360Z,8.65
2023-05-18T06:14:36.335Z,8.68
2023-05-18T06:15:36.322Z,8.76
2023-05-18T06:16:36.360Z,8.86
2023-05-18T06:17:36.326Z,9.04
2023-05-18T06:18:36.390Z,8.86
2023-05-18T06:19:36.279Z,8.76
2023-05-18T06:20:36.287Z,8.86
2023-05-18T06:21:36.270Z,9.09
2023-05-18T06:22:36.263Z,9.24
2023-05-18T06:23:36.242Z,9.25
2023-05-18T06:24:36.242Z,9.24
2023-05-18T06:25:36.232Z,9.45
2023-05-18T06:26:36.217Z,9.57
2023-05-18T06:27:36.209Z,9.71
2023-05-18T06:28:36.183Z,9.63
2023-05-18T06:29:36.183Z,9.76
2023-05-18T06:30:36.183Z,9.78
2023-05-18T06:31:36.180Z,9.82
2023-05-18T06:32:36.158Z,9.82
2023-05-18T06:33:37.174Z,9.88
2023-05-18T06:34:36.127Z,9.94
2023-05-18T06:35:36.147Z,9.81
2023-05-18T06:36:36.124Z,9.97
2023-05-18T06:37:36.100Z,10.10
2023-05-18T06:38:36.134Z,10.15
2023-05-18T06:39:36.072Z,10.28
2023-05-18T06:40:36.094Z,10.39
2023-05-18T06:41:36.064Z,10.33
2023-05-18T06:42:36.044Z,10.39
2023-05-18T06:43:36.042Z,10.55
2023-05-18T06:44:36.044Z,10.66
2023-05-18T06:45:37.310Z,10.76
2023-05-18T06:46:37.093Z,10.83
2023-05-18T06:47:36.111Z,10.78
2023-05-18T06:48:35.993Z,10.89
2023-05-18T06:49:35.985Z,10.96
2023-05-18T06:50:35.979Z,11.03
2023-05-18T06:51:35.956Z,11.14
2023-05-18T06:52:35.953Z,11.06
2023-05-18T06:53:35.933Z,11.24
2023-05-18T06:54:36.603Z,11.34
2023-05-18T06:55:36.749Z,11.50
2023-05-18T06:56:35.900Z,11.53
2023-05-18T06:57:35.887Z,11.53
2023-05-18T06:58:35.960Z,11.72
2023-05-18T06:59:36.331Z,11.83
2023-05-18T07:00:36.444Z,11.89
2023-05-18T07:01:35.917Z,11.78
2023-05-18T07:02:35.918Z,11.64
2023-05-18T07:03:35.892Z,11.65
2023-05-18T07:04:35.817Z,11.70
2023-05-18T07:05:39.209Z,11.72
2023-05-18T07:06:36.781Z,11.80
2023-05-18T07:07:35.792Z,11.78
2023-05-18T07:08:35.823Z,11.72
2023-05-18T07:09:35.802Z,11.72
2023-05-18T07:10:35.761Z,11.65
2023-05-18T07:11:35.742Z,11.71
2023-05-18T07:12:35.721Z,11.83
2023-05-18T07:13:35.728Z,11.77
2023-05-18T07:14:35.703Z,11.89
2023-05-18T07:15:35.785Z,12.02
2023-05-18T07:16:35.820Z,12.06
2023-05-18T07:17:35.706Z,12.09
2023-05-18T07:18:35.740Z,12.06
2023-05-18T07:19:35.644Z,12.04
2023-05-18T07:20:35.651Z,12.27
2023-05-18T07:21:35.627Z,12.29
2023-05-18T07:22:35.623Z,12.41
2023-05-18T07:23:35.805Z,12.49
2023-05-18T07:25:09.780Z,12.51
2023-05-18T07:25:35.609Z,12.26
2023-05-18T07:26:35.601Z,12.23
2023-05-18T07:27:35.592Z,12.37
2023-05-18T07:28:35.585Z,12.37
2023-05-18T07:29:35.555Z,12.49
2023-05-18T07:30:35.537Z,12.48
2023-05-18T07:31:35.562Z,12.45
2023-05-18T07:32:35.597Z,12.24
2023-05-18T07:33:35.537Z,12.20
2023-05-18T07:34:35.557Z,12.49
2023-05-18T07:35:35.536Z,12.56
2023-05-18T07:36:35.497Z,12.66
2023-05-18T07:37:35.519Z,12.74
2023-05-18T07:38:35.488Z,12.88
2023-05-18T07:39:35.489Z,12.67
2023-05-18T07:40:35.461Z,12.56
2023-05-18T07:41:35.458Z,12.38
2023-05-18T07:42:35.450Z,12.39
2023-05-18T07:43:35.426Z,12.39
2023-05-18T07:44:35.418Z,12.48
2023-05-18T07:45:35.430Z,12.62
2023-05-18T07:46:35.440Z,12.93
2023-05-18T07:47:35.450Z,12.88
2023-05-18T07:48:35.389Z,12.79
2023-05-18T07:49:35.373Z,12.78
2023-05-18T07:50:35.373Z,12.88
2023-05-18T07:51:35.374Z,12.93
2023-05-18T07:52:35.393Z,12.92
2023-05-18T07:53:35.335Z,12.92
2023-05-18T07:54:35.323Z,12.93
2023-05-18T07:55:35.316Z,12.64
2023-05-18T07:56:35.313Z,12.75
2023-05-18T07:57:35.307Z,13.00
2023-05-18T07:58:35.325Z,12.99
2023-05-18T07:59:35.293Z,12.97
2023-05-18T08:00:35.270Z,12.96
2023-05-18T08:01:35.370Z,13.11
2023-05-18T08:02:35.296Z,13.43
2023-05-18T08:03:35.288Z,13.52
2023-05-18T08:04:35.225Z,13.33
2023-05-18T08:05:35.209Z,13.27
2023-05-18T08:06:35.214Z,13.17
2023-05-18T08:07:35.197Z,12.96
2023-05-18T08:08:35.197Z,13.07
2023-05-18T08:09:35.173Z,13.12
2023-05-18T08:10:35.230Z,12.95
2023-05-18T08:11:35.184Z,12.93
2023-05-18T08:12:35.145Z,13.09
2023-05-18T08:13:35.125Z,13.04
2023-05-18T08:14:35.115Z,13.07
2023-05-18T08:15:35.121Z,13.30
2023-05-18T08:16:35.179Z,13.41
2023-05-18T08:17:36.117Z,13.44
2023-05-18T08:18:35.089Z,13.77
2023-05-18T08:19:36.055Z,14.04
2023-05-18T08:20:35.077Z,14.14
2023-05-18T08:21:35.041Z,14.13
2023-05-18T08:22:35.044Z,14.20
2023-05-18T08:23:35.025Z,14.19
2023-05-18T08:24:35.029Z,14.24
2023-05-18T08:25:35.026Z,14.46
2023-05-18T08:26:35.005Z,14.43
2023-05-18T08:27:35.007Z,14.39
2023-05-18T08:28:35.006Z,14.29
2023-05-18T08:29:34.981Z,14.19
2023-05-18T08:30:34.960Z,14.61
2023-05-18T08:31:35.031Z,14.54
2023-05-18T08:32:34.956Z,14.52
2023-05-18T08:33:34.923Z,14.38
2023-05-18T08:34:34.968Z,14.06
2023-05-18T08:35:34.932Z,13.92
2023-05-18T08:36:34.880Z,13.91
2023-05-18T08:37:34.876Z,13.88
2023-05-18T08:38:34.866Z,13.70
2023-05-18T08:39:34.894Z,13.65
2023-05-18T08:40:34.852Z,13.96
2023-05-18T08:41:34.823Z,13.98
2023-05-18T08:42:48.662Z,13.92
2023-05-18T08:43:36.816Z,13.79
2023-05-18T08:44:34.814Z,13.92
2023-05-18T08:45:34.795Z,14.29
2023-05-18T08:46:34.789Z,14.75
2023-05-18T08:47:34.843Z,14.94
2023-05-18T08:48:34.852Z,15.08
2023-05-18T08:49:34.763Z,15.31
2023-05-18T08:50:34.751Z,15.54
2023-05-18T08:51:34.745Z,16.04
2023-05-18T08:52:34.730Z,16.37
2023-05-18T08:53:34.738Z,16.68
2023-05-18T08:54:34.705Z,17.06
2023-05-18T08:55:34.678Z,17.32
2023-05-18T08:56:34.722Z,17.64
2023-05-18T08:57:34.679Z,17.66
2023-05-18T08:58:34.660Z,17.30
2023-05-18T08:59:35.678Z,16.96
2023-05-18T09:00:35.106Z,17.06
2023-05-18T09:01:34.686Z,17.15
2023-05-18T09:02:34.677Z,16.89
2023-05-18T09:03:34.608Z,16.93
2023-05-18T09:04:34.616Z,17.17
2023-05-18T09:05:35.061Z,17.53
2023-05-18T09:06:34.581Z,17.41
2023-05-18T09:07:34.594Z,17.57
2023-05-18T09:08:34.556Z,17.79
2023-05-18T09:09:34.546Z,17.84
2023-05-18T09:10:34.544Z,17.95
2023-05-18T09:11:34.567Z,18.15
2023-05-18T09:12:34.520Z,18.10
2023-05-18T09:13:34.512Z,18.29
2023-05-18T09:14:34.491Z,18.34
2023-05-18T09:15:34.474Z,18.15
2023-05-18T09:16:34.625Z,18.21
2023-05-18T09:17:34.460Z,18.12
2023-05-18T09:18:34.546Z,18.03
2023-05-18T09:19:34.444Z,18.21
2023-05-18T09:20:34.428Z,18.52
2023-05-18T09:21:34.430Z,18.62
2023-05-18T09:22:34.405Z,18.68
2023-05-18T09:23:34.408Z,18.39
2023-05-18T09:24:34.402Z,17.95
2023-05-18T09:25:34.386Z,17.41
2023-05-18T09:26:34.379Z,17.32
2023-05-18T09:27:34.371Z,17.14
2023-05-18T09:28:34.335Z,17.33
2023-05-18T09:29:34.353Z,17.11
2023-05-18T09:30:34.351Z,17.46
2023-05-18T09:31:34.387Z,17.66
2023-05-18T09:32:34.324Z,17.85
2023-05-18T09:33:34.387Z,18.18
2023-05-18T09:34:34.294Z,18.29
2023-05-18T09:35:34.581Z,18.65
2023-05-18T09:36:34.267Z,18.76
2023-05-18T09:37:34.262Z,18.86
2023-05-18T09:38:34.248Z,18.80
2023-05-18T09:39:34.247Z,18.77
2023-05-18T09:40:34.235Z,18.65
2023-05-18T09:41:34.223Z,18.70
2023-05-18T09:42:34.213Z,18.54
2023-05-18T09:43:34.202Z,17.95
2023-05-18T09:44:34.198Z,17.82
2023-05-18T09:45:34.174Z,18.09
2023-05-18T09:46:34.234Z,18.21
2023-05-18T09:47:34.166Z,18.49
2023-05-18T09:48:34.151Z,18.17
2023-05-18T09:49:34.161Z,17.84
2023-05-18T09:50:34.142Z,17.55
2023-05-18T09:51:34.130Z,17.08
2023-05-18T09:52:34.112Z,16.88
2023-05-18T09:53:34.116Z,16.65
2023-05-18T09:54:34.097Z,16.48
2023-05-18T09:55:35.094Z,16.65
2023-05-18T09:56:34.064Z,16.93
2023-05-18T09:57:34.058Z,17.51
2023-05-18T09:58:34.070Z,17.66
2023-05-18T09:59:34.057Z,17.44
2023-05-18T10:00:34.070Z,16.90
2023-05-18T10:01:34.093Z,16.49
2023-05-18T10:02:34.066Z,16.34
2023-05-18T10:03:34.019Z,16.58
2023-05-18T10:04:34.025Z,17.04
2023-05-18T10:05:35.732Z,17.20
2023-05-18T10:06:34.971Z,17.36
2023-05-18T10:07:33.966Z,17.63
2023-05-18T10:08:33.952Z,17.84
2023-05-18T10:09:33.939Z,17.64
2023-05-18T10:10:33.967Z,17.44
2023-05-18T10:11:33.930Z,17.15
2023-05-18T10:12:33.933Z,16.99
2023-05-18T10:13:33.896Z,17.11
2023-05-18T10:14:33.896Z,17.20
2023-05-18T10:15:33.884Z,17.13
2023-05-18T10:16:33.898Z,17.20
2023-05-18T10:17:33.961Z,17.26
2023-05-18T10:18:33.965Z,17.18
2023-05-18T10:19:33.848Z,17.43
2023-05-18T10:20:33.835Z,17.35
2023-05-18T10:21:33.825Z,17.40
2023-05-18T10:22:33.829Z,17.10
2023-05-18T10:23:33.805Z,16.86
2023-05-18T10:24:33.787Z,16.92
2023-05-18T10:25:33.783Z,17.18
2023-05-18T10:26:33.790Z,17.50
2023-05-18T10:27:33.761Z,17.99
2023-05-18T10:28:33.750Z,18.39
2023-05-18T10:29:33.739Z,18.79
2023-05-18T10:30:33.947Z,19.21
2023-05-18T10:31:33.778Z,19.61
2023-05-18T10:32:33.745Z,19.31
2023-05-18T10:33:33.747Z,19.02
2023-05-18T10:34:33.839Z,18.95
2023-05-18T10:35:33.675Z,19.35
2023-05-18T10:36:33.675Z,19.18
2023-05-18T10:37:33.653Z,19.23
2023-05-18T10:38:33.650Z,19.20
2023-05-18T10:39:33.640Z,18.99
2023-05-18T10:40:33.676Z,18.94
2023-05-18T10:41:33.631Z,18.91
2023-05-18T10:42:33.602Z,18.62
2023-05-18T10:43:34.595Z,18.44
2023-05-18T10:44:33.589Z,18.42
2023-05-18T10:45:33.589Z,18.59
2023-05-18T10:46:33.745Z,18.09
2023-05-18T10:47:33.810Z,18.02
2023-05-18T10:48:33.572Z,18.29
2023-05-18T10:49:33.548Z,18.57
2023-05-18T10:50:33.558Z,18.76
2023-05-18T10:51:33.520Z,19.15
2023-05-18T10:52:33.501Z,19.11
2023-05-18T10:53:33.498Z,18.77
2023-05-18T10:54:33.492Z,18.67
2023-05-18T10:55:33.490Z,18.80
2023-05-18T10:56:33.494Z,18.68
2023-05-18T10:57:33.454Z,18.62
2023-05-18T10:58:33.445Z,18.46
2023-05-18T10:59:33.453Z,18.25
2023-05-18T11:00:33.645Z,18.17
2023-05-18T11:01:33.425Z,18.03
2023-05-18T11:02:33.479Z,18.34
2023-05-18T11:03:33.430Z,18.46
2023-05-18T11:04:33.435Z,18.54
2023-05-18T11:05:33.398Z,18.67
2023-05-18T11:06:33.481Z,18.97
2023-05-18T11:07:33.350Z,19.10
2023-05-18T11:08:33.344Z,19.33
2023-05-18T11:09:33.343Z,19.35
2023-05-18T11:10:33.321Z,19.43
2023-05-18T11:11:33.308Z,19.02
2023-05-18T11:12:33.343Z,18.31
2023-05-18T11:13:33.285Z,17.97
2023-05-18T11:14:34.295Z,18.07
2023-05-18T11:15:33.276Z,18.42
2023-05-18T11:16:33.301Z,18.40
2023-05-18T11:17:33.343Z,18.61
2023-05-18T11:18:33.246Z,18.47
2023-05-18T11:19:33.242Z,18.29
2023-05-18T11:20:33.395Z,18.99
2023-05-18T11:21:33.212Z,19.31
2023-05-18T11:22:33.192Z,19.39
2023-05-18T11:23:33.209Z,19.20
2023-05-18T11:24:33.216Z,19.46
2023-05-18T11:25:33.177Z,19.63
2023-05-18T11:26:33.162Z,19.75
2023-05-18T11:27:33.150Z,19.65
2023-05-18T11:28:33.149Z,19.36
2023-05-18T11:29:33.126Z,19.57
2023-05-18T11:30:33.337Z,19.66
2023-05-18T11:31:33.149Z,19.66
2023-05-18T11:32:33.200Z,19.84
2023-05-18T11:33:33.168Z,19.90
2023-05-18T11:34:33.085Z,20.00
2023-05-18T11:35:33.067Z,19.61
2023-05-18T11:36:33.047Z,19.69
2023-05-18T11:37:33.108Z,19.93
2023-05-18T11:38:33.077Z,20.06
2023-05-18T11:39:33.261Z,20.08
2023-05-18T11:40:33.121Z,20.18
2023-05-18T11:41:33.025Z,19.91
2023-05-18T11:42:33.015Z,19.73
2023-05-18T11:43:32.984Z,19.60
2023-05-18T11:44:32.982Z,19.35
2023-05-18T11:45:32.967Z,19.01
2023-05-18T11:46:32.958Z,18.79
2023-05-18T11:47:32.974Z,18.49
2023-05-18T11:48:33.004Z,18.21
2023-05-18T11:49:32.923Z,18.15
2023-05-18T11:50:33.337Z,18.13
2023-05-18T11:51:32.920Z,18.33
2023-05-18T11:52:32.911Z,18.43
2023-05-18T11:53:32.887Z,18.36
2023-05-18T11:54:32.997Z,18.15
2023-05-18T11:55:32.874Z,18.00
2023-05-18T11:56:32.886Z,17.73
2023-05-18T11:57:32.888Z,17.69
2023-05-18T11:58:32.838Z,17.73
2023-05-18T11:59:32.827Z,17.63
2023-05-18T12:00:32.923Z,17.55
2023-05-18T12:01:32.822Z,17.43
2023-05-18T12:02:32.845Z,17.38
2023-05-18T12:03:32.882Z,17.25
2023-05-18T12:04:32.789Z,17.06
2023-05-18T12:05:32.768Z,17.06
2023-05-18T12:06:32.766Z,16.95
2023-05-18T12:07:32.798Z,17.10
2023-05-18T12:08:32.746Z,16.93
2023-05-18T12:09:32.726Z,16.92
2023-05-18T12:10:33.009Z,17.26
2023-05-18T12:11:32.742Z,17.69
2023-05-18T12:12:32.702Z,17.92
2023-05-18T12:13:32.682Z,18.12
2023-05-18T12:14:32.682Z,18.40
2023-05-18T12:15:32.663Z,18.84
2023-05-18T12:16:33.732Z,19.10
2023-05-18T12:17:32.712Z,18.99
2023-05-18T12:18:32.628Z,18.87
2023-05-18T12:19:32.683Z,19.01
2023-05-18T12:20:32.825Z,18.68
2023-05-18T12:21:32.609Z,18.83
2023-05-18T12:22:32.595Z,18.73
2023-05-18T12:23:32.588Z,18.79
2023-05-18T12:24:32.579Z,18.19
2023-05-18T12:25:32.698Z,17.99
2023-05-18T12:26:32.561Z,18.24
2023-05-18T12:27:32.614Z,18.46
2023-05-18T12:28:32.533Z,18.50
2023-05-18T12:29:32.558Z,18.61
2023-05-18T12:30:32.526Z,18.74
2023-05-18T12:31:32.611Z,18.87
2023-05-18T12:32:32.516Z,18.86
2023-05-18T12:33:32.486Z,18.67
2023-05-18T12:34:32.489Z,18.47
2023-05-18T12:35:32.962Z,18.31
2023-05-18T12:36:32.456Z,18.31
2023-05-18T12:37:41.606Z,18.10
2023-05-18T12:38:34.456Z,17.97
2023-05-18T12:39:32.433Z,18.00
2023-05-18T12:40:32.423Z,18.13
2023-05-18T12:41:32.424Z,18.17
2023-05-18T12:42:32.465Z,18.44
2023-05-18T12:43:32.399Z,18.46
2023-05-18T12:44:32.390Z,18.37
2023-05-18T12:45:32.731Z,18.44
2023-05-18T12:46:32.382Z,18.40
2023-05-18T12:47:32.404Z,18.57
2023-05-18T12:48:32.346Z,18.42
2023-05-18T12:49:32.326Z,18.64
2023-05-18T12:50:32.369Z,18.72
2023-05-18T12:51:32.315Z,18.73
2023-05-18T12:52:32.295Z,18.90
2023-05-18T12:53:32.301Z,18.92
2023-05-18T12:54:32.277Z,19.01
2023-05-18T12:55:32.833Z,19.01
2023-05-18T12:56:32.258Z,18.92
2023-05-18T12:57:32.279Z,18.87
2023-05-18T12:58:32.246Z,18.86
2023-05-18T12:59:32.230Z,19.15
2023-05-18T13:00:32.226Z,18.92
2023-05-18T13:01:32.226Z,18.43
2023-05-18T13:02:32.323Z,18.19
2023-05-18T13:03:32.248Z,17.81
2023-05-18T13:04:32.172Z,17.87
2023-05-18T13:05:32.360Z,18.07